createdAt,value
2017-11-13T00:00:30.306Z,4.6
2017-11-13T00:01:40.607Z,4.64
2017-11-13T00:02:50.912Z,4.57
2017-11-13T00:04:01.238Z,4.56
2017-11-13T00:05:11.545Z,4.53
2017-11-13T00:06:21.184Z,4.58
2017-11-13T00:07:31.488Z,4.52
2017-11-13T00:08:41.797Z,4.56
2017-11-13T00:09:51.445Z,4.53
2017-11-13T00:11:01.469Z,4.53
2017-11-13T00:12:11.456Z,4.6
2017-11-13T00:13:20.775Z,4.56
2017-11-13T00:14:30.771Z,4.53
2017-11-13T00:15:41.310Z,4.49
2017-11-13T00:16:51.620Z,4.56
2017-11-13T00:18:01.602Z,4.53
2017-11-13T00:19:11.906Z,4.53
2017-11-13T00:20:22.199Z,4.53
2017-11-13T00:21:32.201Z,4.56
2017-11-13T00:22:42.503Z,4.46
2017-11-13T00:23:52.822Z,4.57
2017-11-13T00:25:02.804Z,4.58
2017-11-13T00:26:12.787Z,4.52
2017-11-13T00:27:22.776Z,4.56
2017-11-13T00:28:32.443Z,4.58
2017-11-13T00:29:42.752Z,4.6
2017-11-13T00:30:52.741Z,4.5
2017-11-13T00:32:02.721Z,4.49
2017-11-13T00:33:12.711Z,4.5
2017-11-13T00:34:22.368Z,4.5
2017-11-13T00:35:32.350Z,4.5
2017-11-13T00:36:42.332Z,4.53
2017-11-13T00:37:52.627Z,4.53
2017-11-13T00:39:02.923Z,4.5
2017-11-13T00:40:12.895Z,4.5
2017-11-13T00:41:22.881Z,4.46
2017-11-13T00:42:33.208Z,4.5
2017-11-13T00:43:43.501Z,4.52
2017-11-13T00:44:53.808Z,4.48
2017-11-13T00:46:04.113Z,4.49
2017-11-13T00:47:14.020Z,4.38
2017-11-13T00:48:23.995Z,4.38
2017-11-13T00:49:34.290Z,4.4
2017-11-13T00:50:44.262Z,4.4
2017-11-13T00:51:54.231Z,4.42
2017-11-13T00:53:04.533Z,4.43
2017-11-13T00:54:14.839Z,4.4
2017-11-13T00:55:24.797Z,4.4
2017-11-13T00:56:34.787Z,4.34
2017-11-13T00:57:45.096Z,4.42
2017-11-13T00:58:55.428Z,4.36
2017-11-13T01:00:05.069Z,4.45
2017-11-13T01:01:15.398Z,4.48
2017-11-13T01:02:25.052Z,4.43
2017-11-13T01:03:34.714Z,4.36
2017-11-13T01:04:44.695Z,4.36
2017-11-13T01:05:54.994Z,4.39
2017-11-13T01:07:05.302Z,4.4
2017-11-13T01:08:15.197Z,4.42
2017-11-13T01:09:25.504Z,4.22
2017-11-13T01:10:35.830Z,4.21
2017-11-13T01:11:46.155Z,4.24
2017-11-13T01:12:56.133Z,4.22
2017-11-13T01:14:06.101Z,4.27
2017-11-13T01:15:16.411Z,4.27
2017-11-13T01:16:26.393Z,4.2
2017-11-13T01:17:36.366Z,4.21
2017-11-13T01:18:46.002Z,4.16
2017-11-13T01:19:55.654Z,4.12
2017-11-13T01:21:05.971Z,4.12
2017-11-13T01:22:16.279Z,4.1
2017-11-13T01:23:26.257Z,4.04
2017-11-13T01:24:36.228Z,4.14
2017-11-13T01:25:46.202Z,4.04
2017-11-13T01:26:55.843Z,4.13
2017-11-13T01:28:05.485Z,4.03
2017-11-13T01:29:15.125Z,4.04
2017-11-13T01:30:24.770Z,3.96
2017-11-13T01:31:35.063Z,3.96
2017-11-13T01:32:45.373Z,4.02
2017-11-13T01:33:55.718Z,4.02
2017-11-13T01:35:05.383Z,4
2017-11-13T01:36:15.704Z,3.96
2017-11-13T01:37:25.679Z,3.99
2017-11-13T01:38:35.644Z,3.96
2017-11-13T01:39:45.626Z,3.94
2017-11-13T01:40:55.604Z,3.95
2017-11-13T01:42:05.901Z,3.94
2017-11-13T01:43:15.889Z,3.96
2017-11-13T01:44:26.208Z,3.86
2017-11-13T01:45:36.187Z,3.89
2017-11-13T01:46:45.825Z,3.86
2017-11-13T01:47:55.799Z,3.86
2017-11-13T01:49:06.095Z,3.92
2017-11-13T01:50:16.067Z,3.95
2017-11-13T01:51:26.396Z,3.89
2017-11-13T01:52:36.383Z,3.89
2017-11-13T01:53:46.699Z,3.86
2017-11-13T01:54:56.352Z,3.91
2017-11-13T01:56:06.674Z,3.86
2017-11-13T01:57:16.671Z,3.92
2017-11-13T01:58:26.974Z,3.91
2017-11-13T01:59:36.957Z,3.81
2017-11-13T02:00:46.596Z,3.82
2017-11-13T02:01:56.598Z,3.77
2017-11-13T02:03:06.562Z,3.85
2017-11-13T02:04:16.865Z,3.85
2017-11-13T02:05:26.838Z,3.88
2017-11-13T02:06:36.815Z,3.82
2017-11-13T02:07:47.113Z,3.89
2017-11-13T02:08:57.093Z,3.86
2017-11-13T02:10:07.388Z,3.86
2017-11-13T02:11:17.693Z,3.86
2017-11-13T02:12:27.986Z,3.86
2017-11-13T02:13:37.956Z,3.91
2017-11-13T02:14:47.922Z,3.81
2017-11-13T02:15:57.897Z,3.94
2017-11-13T02:17:07.895Z,3.82
2017-11-13T02:18:17.532Z,3.81
2017-11-13T02:19:27.178Z,3.82
2017-11-13T02:20:37.474Z,3.82
2017-11-13T02:21:47.771Z,3.86
2017-11-13T02:22:58.067Z,3.82
2017-11-13T02:24:08.058Z,3.84
2017-11-13T02:25:17.697Z,3.82
2017-11-13T02:26:28.000Z,3.81
2017-11-13T02:27:37.979Z,3.86
2017-11-13T02:28:48.306Z,3.82
2017-11-13T02:29:58.283Z,3.88
2017-11-13T02:31:08.583Z,3.89
2017-11-13T02:32:18.231Z,3.86
2017-11-13T02:33:28.217Z,3.84
2017-11-13T02:34:38.553Z,3.88
2017-11-13T02:35:48.873Z,3.86
2017-11-13T02:36:58.530Z,3.82
2017-11-13T02:38:08.514Z,3.91
2017-11-13T02:39:18.818Z,3.85
2017-11-13T02:40:28.472Z,3.85
2017-11-13T02:41:38.779Z,3.84
2017-11-13T02:42:48.756Z,3.86
2017-11-13T02:43:59.316Z,3.91
2017-11-13T02:45:09.291Z,3.86
2017-11-13T02:46:19.618Z,3.86
2017-11-13T02:47:29.619Z,3.78
2017-11-13T02:48:38.601Z,3.78
2017-11-13T02:49:48.915Z,3.92
2017-11-13T02:50:58.891Z,3.81
2017-11-13T02:52:08.874Z,3.84
2017-11-13T02:53:18.862Z,3.92
2017-11-13T02:54:29.177Z,3.81
2017-11-13T02:55:39.408Z,3.85
2017-11-13T02:56:49.376Z,3.82
2017-11-13T02:57:59.362Z,3.82
2017-11-13T02:59:09.347Z,3.92
2017-11-13T03:00:18.988Z,3.85
2017-11-13T03:01:29.337Z,3.85
2017-11-13T03:02:39.299Z,3.88
2017-11-13T03:03:49.280Z,3.78
2017-11-13T03:04:59.250Z,3.91
2017-11-13T03:06:09.957Z,3.81
2017-11-13T03:07:20.184Z,3.92
2017-11-13T03:08:29.839Z,3.89
2017-11-13T03:09:39.823Z,3.89
2017-11-13T03:10:49.788Z,3.95
2017-11-13T03:11:59.753Z,3.89
2017-11-13T03:13:10.060Z,3.88
2017-11-13T03:14:20.034Z,3.92
2017-11-13T03:15:30.343Z,3.86
2017-11-13T03:16:40.643Z,3.89
2017-11-13T03:17:50.626Z,3.88
2017-11-13T03:19:00.281Z,3.82
2017-11-13T03:20:10.589Z,3.86
2017-11-13T03:21:20.574Z,3.86
2017-11-13T03:22:30.560Z,3.89
2017-11-13T03:23:40.550Z,3.89
2017-11-13T03:24:50.525Z,3.86
2017-11-13T03:26:00.500Z,3.86
2017-11-13T03:27:10.153Z,3.88
2017-11-13T03:28:19.807Z,3.81
2017-11-13T03:29:30.121Z,3.88
2017-11-13T03:30:40.440Z,3.85
2017-11-13T03:31:50.425Z,3.94
2017-11-13T03:33:00.732Z,3.86
2017-11-13T03:34:11.278Z,3.85
2017-11-13T03:35:21.259Z,3.85
2017-11-13T03:36:31.559Z,3.94
2017-11-13T03:37:41.532Z,3.85
2017-11-13T03:38:51.506Z,3.86
2017-11-13T03:40:01.826Z,3.88
2017-11-13T03:41:11.470Z,4.03
2017-11-13T03:42:21.772Z,3.88
2017-11-13T03:43:31.736Z,3.78
2017-11-13T03:44:42.287Z,3.85
2017-11-13T03:45:52.259Z,3.94
2017-11-13T03:47:01.592Z,3.94
2017-11-13T03:48:11.888Z,3.88
2017-11-13T03:49:21.527Z,3.92
2017-11-13T03:50:31.824Z,3.89
2017-11-13T03:51:42.126Z,3.92
2017-11-13T03:52:52.099Z,3.94
2017-11-13T03:54:02.407Z,3.95
2017-11-13T03:55:12.719Z,3.92
2017-11-13T03:56:22.386Z,4.03
2017-11-13T03:57:32.359Z,3.96
2017-11-13T03:58:42.344Z,3.96
2017-11-13T03:59:52.312Z,3.92
2017-11-13T04:01:02.612Z,3.96
2017-11-13T04:02:12.583Z,4
2017-11-13T04:03:22.554Z,4.03
2017-11-13T04:04:32.202Z,3.92
2017-11-13T04:05:42.492Z,4.09
2017-11-13T04:06:52.486Z,4.02
2017-11-13T04:08:02.131Z,4.02
2017-11-13T04:09:12.446Z,4.07
2017-11-13T04:10:22.427Z,4.02
2017-11-13T04:11:32.390Z,4.02
2017-11-13T04:12:42.369Z,4.04
2017-11-13T04:13:52.345Z,4
2017-11-13T04:15:02.654Z,4.02
2017-11-13T04:16:12.971Z,4.04
2017-11-13T04:17:22.949Z,4.03
2017-11-13T04:18:33.268Z,3.99
2017-11-13T04:19:43.241Z,4
2017-11-13T04:20:52.871Z,4.04
2017-11-13T04:22:02.857Z,4.06
2017-11-13T04:23:12.513Z,3.99
2017-11-13T04:24:22.483Z,4.03
2017-11-13T04:25:32.801Z,4.1
2017-11-13T04:26:42.784Z,4.02
2017-11-13T04:27:52.786Z,4.03
2017-11-13T04:29:02.778Z,4.16
2017-11-13T04:30:12.753Z,4.03
2017-11-13T04:31:23.051Z,4.02
2017-11-13T04:32:33.355Z,4.1
2017-11-13T04:33:43.323Z,4
2017-11-13T04:34:53.621Z,3.99
2017-11-13T04:36:03.598Z,3.99
2017-11-13T04:37:13.237Z,4.03
2017-11-13T04:38:22.939Z,4
2017-11-13T04:39:32.267Z,4.03
2017-11-13T04:40:42.244Z,4.03
2017-11-13T04:41:52.214Z,4.06
2017-11-13T04:43:02.189Z,4
2017-11-13T04:44:12.174Z,4.09
2017-11-13T04:45:22.475Z,4.13
2017-11-13T04:46:32.495Z,3.95
2017-11-13T04:47:42.801Z,4.02
2017-11-13T04:48:52.767Z,3.96
2017-11-13T04:50:02.736Z,4.09
2017-11-13T04:51:13.052Z,4.09
2017-11-13T04:52:22.711Z,4.12
2017-11-13T04:53:33.020Z,4.09
2017-11-13T04:54:43.317Z,4.16
2017-11-13T04:55:53.283Z,4.12
2017-11-13T04:57:03.580Z,4.16
2017-11-13T04:58:12.900Z,4.16
2017-11-13T04:59:22.550Z,4.09
2017-11-13T05:00:31.869Z,4.2
2017-11-13T05:01:42.534Z,4.21
2017-11-13T05:02:52.519Z,4.22
2017-11-13T05:04:02.825Z,4.18
2017-11-13T05:05:12.502Z,4.1
2017-11-13T05:06:22.469Z,4.04
2017-11-13T05:07:32.765Z,4.04
2017-11-13T05:08:42.755Z,3.99
2017-11-13T05:09:53.054Z,4.03
2017-11-13T05:11:03.020Z,3.96
2017-11-13T05:12:12.674Z,3.94
2017-11-13T05:13:22.987Z,3.85
2017-11-13T05:14:33.303Z,3.82
2017-11-13T05:15:43.613Z,3.85
2017-11-13T05:16:53.595Z,3.78
2017-11-13T05:18:03.927Z,3.78
2017-11-13T05:19:13.898Z,3.78
2017-11-13T05:20:23.878Z,3.88
2017-11-13T05:21:33.862Z,3.85
2017-11-13T05:22:44.165Z,3.81
2017-11-13T05:23:54.506Z,3.78
2017-11-13T05:25:04.823Z,3.81
2017-11-13T05:26:14.805Z,3.81
2017-11-13T05:27:24.776Z,3.7
2017-11-13T05:28:35.078Z,3.7
2017-11-13T05:29:45.409Z,3.82
2017-11-13T05:30:55.720Z,3.84
2017-11-13T05:32:05.721Z,3.67
2017-11-13T05:33:16.065Z,3.7
2017-11-13T05:34:25.718Z,3.84
2017-11-13T05:35:35.365Z,3.76
2017-11-13T05:36:44.997Z,3.78
2017-11-13T05:37:54.971Z,3.89
2017-11-13T05:39:04.942Z,3.78
2017-11-13T05:40:14.590Z,3.81
2017-11-13T05:41:24.913Z,3.89
2017-11-13T05:42:35.257Z,3.82
2017-11-13T05:43:45.585Z,3.89
2017-11-13T05:44:55.551Z,3.86
2017-11-13T05:46:05.530Z,3.89
2017-11-13T05:47:15.521Z,3.89
2017-11-13T05:48:25.190Z,3.86
2017-11-13T05:49:35.189Z,3.91
2017-11-13T05:50:45.507Z,3.86
2017-11-13T05:51:55.474Z,3.89
2017-11-13T05:53:05.116Z,3.82
2017-11-13T05:54:14.805Z,3.82
2017-11-13T05:55:24.783Z,3.86
2017-11-13T05:56:35.083Z,3.84
2017-11-13T05:57:45.407Z,3.84
2017-11-13T05:58:55.704Z,3.85
2017-11-13T06:00:05.023Z,3.92
2017-11-13T06:01:15.333Z,3.86
2017-11-13T06:02:25.001Z,3.94
2017-11-13T06:03:35.002Z,3.95
2017-11-13T06:04:44.634Z,3.94
2017-11-13T06:05:54.933Z,3.92
2017-11-13T06:07:04.844Z,3.78
2017-11-13T06:08:15.159Z,3.86
2017-11-13T06:09:25.467Z,3.94
2017-11-13T06:10:34.776Z,3.88
2017-11-13T06:11:44.748Z,3.92
2017-11-13T06:12:54.982Z,3.84
2017-11-13T06:14:05.313Z,3.95
2017-11-13T06:15:15.619Z,3.89
2017-11-13T06:16:25.583Z,3.95
2017-11-13T06:17:35.560Z,3.88
2017-11-13T06:18:45.533Z,3.85
2017-11-13T06:19:55.843Z,3.85
2017-11-13T06:21:06.171Z,3.85
2017-11-13T06:22:16.154Z,3.84
2017-11-13T06:23:26.131Z,3.85
2017-11-13T06:24:35.113Z,3.85
2017-11-13T06:25:45.411Z,3.85
2017-11-13T06:26:55.388Z,3.96
2017-11-13T06:28:05.364Z,3.94
2017-11-13T06:29:15.018Z,3.84
2017-11-13T06:30:24.699Z,3.99
2017-11-13T06:31:34.675Z,3.96
2017-11-13T06:32:44.653Z,3.84
2017-11-13T06:33:54.618Z,3.84
2017-11-13T06:35:04.280Z,3.94
2017-11-13T06:36:14.595Z,3.84
2017-11-13T06:37:24.601Z,3.91
2017-11-13T06:38:34.921Z,3.94
2017-11-13T06:39:44.908Z,3.94
2017-11-13T06:40:54.870Z,4
2017-11-13T06:42:05.213Z,3.96
2017-11-13T06:43:15.183Z,4.02
2017-11-13T06:44:25.222Z,3.99
2017-11-13T06:45:35.466Z,4.02
2017-11-13T06:46:45.768Z,4.02
2017-11-13T06:47:56.083Z,4.04
2017-11-13T06:49:05.391Z,4.06
2017-11-13T06:50:15.702Z,3.99
2017-11-13T06:51:26.005Z,4.07
2017-11-13T06:52:35.674Z,4.02
2017-11-13T06:53:45.974Z,4.1
2017-11-13T06:54:55.956Z,4.09
2017-11-13T06:56:05.939Z,4.2
2017-11-13T06:57:15.615Z,4.12
2017-11-13T06:58:25.574Z,4.12
2017-11-13T06:59:35.555Z,4.16
2017-11-13T07:00:45.206Z,4.2
2017-11-13T07:01:55.192Z,4.27
2017-11-13T07:03:05.175Z,4.2
2017-11-13T07:04:15.218Z,4.21
2017-11-13T07:05:24.877Z,4.24
2017-11-13T07:06:35.192Z,4.24
2017-11-13T07:07:45.549Z,4.24
2017-11-13T07:08:55.534Z,4.27
2017-11-13T07:10:05.535Z,4.25
2017-11-13T07:11:15.873Z,4.38
2017-11-13T07:12:26.177Z,4.36
2017-11-13T07:13:36.150Z,4.34
2017-11-13T07:14:46.121Z,4.39
2017-11-13T07:15:56.103Z,4.4
2017-11-13T07:17:06.117Z,4.4
2017-11-13T07:18:16.412Z,4.39
2017-11-13T07:19:26.723Z,4.4
2017-11-13T07:20:37.056Z,4.5
2017-11-13T07:21:47.239Z,4.5
2017-11-13T07:22:57.513Z,4.53
2017-11-13T07:24:07.498Z,4.52
2017-11-13T07:25:17.473Z,4.5
2017-11-13T07:26:27.774Z,4.58
2017-11-13T07:27:37.743Z,4.56
2017-11-13T07:28:47.388Z,4.68
2017-11-13T07:29:57.030Z,4.68
2017-11-13T07:31:07.342Z,4.58
2017-11-13T07:32:17.643Z,4.64
2017-11-13T07:33:27.677Z,4.66
2017-11-13T07:34:37.330Z,4.67
2017-11-13T07:35:47.836Z,4.68
2017-11-13T07:36:57.896Z,4.7
2017-11-13T07:38:08.224Z,4.82
2017-11-13T07:39:18.228Z,4.7
2017-11-13T07:40:27.890Z,4.74
2017-11-13T07:41:37.546Z,4.75
2017-11-13T07:42:47.540Z,4.7
2017-11-13T07:43:57.546Z,4.76
2017-11-13T07:45:07.203Z,4.78
2017-11-13T07:46:17.526Z,4.86
2017-11-13T07:47:27.526Z,4.87
2017-11-13T07:48:37.861Z,4.71
2017-11-13T07:49:47.837Z,4.79
2017-11-13T07:50:57.806Z,4.83
2017-11-13T07:52:08.140Z,4.67
2017-11-13T07:53:17.802Z,4.68
2017-11-13T07:54:28.181Z,4.79
2017-11-13T07:55:38.505Z,4.7
2017-11-13T07:56:48.834Z,4.74
2017-11-13T07:57:59.151Z,4.83
2017-11-13T07:59:08.780Z,4.68
2017-11-13T08:00:19.196Z,4.92
2017-11-13T08:01:29.195Z,4.94
2017-11-13T08:02:39.197Z,4.92
2017-11-13T08:03:49.178Z,5.1
2017-11-13T08:04:59.487Z,5.15
2017-11-13T08:06:10.050Z,5.16
2017-11-13T08:07:20.028Z,5.25
2017-11-13T08:08:30.350Z,5.34
2017-11-13T08:09:40.034Z,5.31
2017-11-13T08:10:50.367Z,5.33
2017-11-13T08:12:00.684Z,5.37
2017-11-13T08:13:10.724Z,5.31
2017-11-13T08:14:21.060Z,5.31
2017-11-13T08:15:31.380Z,5.33
2017-11-13T08:16:41.361Z,5.33
2017-11-13T08:17:51.376Z,5.34
2017-11-13T08:19:01.757Z,5.26
2017-11-13T08:20:11.741Z,5.26
2017-11-13T08:21:22.076Z,5.25
2017-11-13T08:22:31.774Z,5.16
2017-11-13T08:23:41.980Z,5.2
2017-11-13T08:24:52.331Z,5.23
2017-11-13T08:26:02.741Z,5.19
2017-11-13T08:27:12.795Z,5.19
2017-11-13T08:28:22.840Z,5.25
2017-11-13T08:29:33.182Z,5.16
2017-11-13T08:30:42.846Z,5.16
2017-11-13T08:31:52.498Z,5.12
2017-11-13T08:33:02.483Z,5.18
2017-11-13T08:34:12.132Z,5.07
2017-11-13T08:35:22.105Z,5.02
2017-11-13T08:36:32.414Z,5.05
2017-11-13T08:37:42.749Z,5.1
2017-11-13T08:38:53.049Z,5.15
2017-11-13T08:40:03.350Z,5.12
2017-11-13T08:41:13.348Z,5.15
2017-11-13T08:42:23.326Z,5.04
2017-11-13T08:43:33.637Z,5.02
2017-11-13T08:44:43.613Z,5.05
2017-11-13T08:45:53.269Z,5.13
2017-11-13T08:47:02.925Z,5.04
2017-11-13T08:48:12.909Z,5.02
2017-11-13T08:49:22.934Z,5.01
2017-11-13T08:50:33.274Z,5
2017-11-13T08:51:43.581Z,5.07
2017-11-13T08:52:53.576Z,4.98
2017-11-13T08:54:03.890Z,5.05
2017-11-13T08:55:13.882Z,4.94
2017-11-13T08:56:23.864Z,4.97
2017-11-13T08:57:33.848Z,4.86
2017-11-13T08:58:43.841Z,4.94
2017-11-13T08:59:53.819Z,4.9
2017-11-13T09:01:03.515Z,4.92
2017-11-13T09:02:13.851Z,4.97
2017-11-13T09:03:23.817Z,4.89
2017-11-13T09:04:33.496Z,4.94
2017-11-13T09:05:43.826Z,4.86
2017-11-13T09:06:53.845Z,4.84
2017-11-13T09:08:03.844Z,4.82
2017-11-13T09:09:14.163Z,4.87
2017-11-13T09:10:23.819Z,4.98
2017-11-13T09:11:34.163Z,4.89
2017-11-13T09:12:43.829Z,5.01
2017-11-13T09:13:53.804Z,4.89
2017-11-13T09:15:03.775Z,4.98
2017-11-13T09:16:14.084Z,4.95
2017-11-13T09:17:24.087Z,4.87
2017-11-13T09:18:34.075Z,4.83
2017-11-13T09:19:44.423Z,4.86
2017-11-13T09:20:53.736Z,4.9
2017-11-13T09:22:04.047Z,4.94
2017-11-13T09:23:14.393Z,4.94
2017-11-13T09:24:24.077Z,4.94
2017-11-13T09:25:34.052Z,4.97
2017-11-13T09:26:44.369Z,4.98
2017-11-13T09:27:54.018Z,5.01
2017-11-13T09:29:04.005Z,5.05
2017-11-13T09:30:14.338Z,5.01
2017-11-13T09:31:24.322Z,5.08
2017-11-13T09:32:34.081Z,4.98
2017-11-13T09:33:44.430Z,4.97
2017-11-13T09:34:53.430Z,4.98
2017-11-13T09:36:03.077Z,5.07
2017-11-13T09:37:13.084Z,5.07
2017-11-13T09:38:23.078Z,5.12
2017-11-13T09:39:33.074Z,5.12
2017-11-13T09:40:43.065Z,5.16
2017-11-13T09:41:53.052Z,5.12
2017-11-13T09:43:02.369Z,5.2
2017-11-13T09:44:12.030Z,5.23
2017-11-13T09:45:22.349Z,5.16
2017-11-13T09:46:32.043Z,5.23
2017-11-13T09:47:41.721Z,5.22
2017-11-13T09:48:52.049Z,5.23
2017-11-13T09:50:02.062Z,5.31
2017-11-13T09:51:12.410Z,5.23
2017-11-13T09:52:22.389Z,5.31
2017-11-13T09:53:32.377Z,5.34
2017-11-13T09:54:42.396Z,5.38
2017-11-13T09:55:52.120Z,5.41
2017-11-13T09:57:02.124Z,5.44
2017-11-13T09:58:12.153Z,5.58
2017-11-13T09:59:22.210Z,5.7
2017-11-13T10:00:31.866Z,5.77
2017-11-13T10:01:42.227Z,5.72
2017-11-13T10:02:52.232Z,5.83
2017-11-13T10:04:01.894Z,5.84
2017-11-13T10:05:12.220Z,5.99
2017-11-13T10:06:22.526Z,6.13
2017-11-13T10:07:32.871Z,6.07
2017-11-13T10:08:43.213Z,6.09
2017-11-13T10:09:53.193Z,6.07
2017-11-13T10:11:03.537Z,6.12
2017-11-13T10:12:13.516Z,6.13
2017-11-13T10:13:23.174Z,6.07
2017-11-13T10:14:33.163Z,5.98
2017-11-13T10:15:42.812Z,5.95
2017-11-13T10:16:52.792Z,5.92
2017-11-13T10:18:02.767Z,5.92
2017-11-13T10:19:12.744Z,5.97
2017-11-13T10:20:23.042Z,5.98
2017-11-13T10:21:32.701Z,5.9
2017-11-13T10:22:43.008Z,5.95
2017-11-13T10:23:53.003Z,5.84
2017-11-13T10:25:02.991Z,5.88
2017-11-13T10:26:12.968Z,5.9
2017-11-13T10:27:22.940Z,5.84
2017-11-13T10:28:32.602Z,5.9
2017-11-13T10:29:42.580Z,5.92
2017-11-13T10:30:52.903Z,5.92
2017-11-13T10:32:03.208Z,5.95
2017-11-13T10:33:13.213Z,5.91
2017-11-13T10:34:23.206Z,5.98
2017-11-13T10:35:33.542Z,5.95
2017-11-13T10:36:43.516Z,5.97
2017-11-13T10:37:53.180Z,5.99
2017-11-13T10:39:03.168Z,5.98
2017-11-13T10:40:13.489Z,5.95
2017-11-13T10:41:23.490Z,5.99
2017-11-13T10:42:33.807Z,6.06
2017-11-13T10:43:43.798Z,6.06
2017-11-13T10:44:53.801Z,6.16
2017-11-13T10:46:03.813Z,6.17
2017-11-13T10:47:13.465Z,6.17
2017-11-13T10:48:23.483Z,6.2
2017-11-13T10:49:33.793Z,6.26
2017-11-13T10:50:43.453Z,6.31
2017-11-13T10:51:53.791Z,6.26
2017-11-13T10:53:03.801Z,6.16
2017-11-13T10:54:13.781Z,6.2
2017-11-13T10:55:23.797Z,6.19
2017-11-13T10:56:34.116Z,6.22
2017-11-13T10:57:43.761Z,6.17
2017-11-13T10:58:53.737Z,6.13
2017-11-13T11:00:03.729Z,6.15
2017-11-13T11:01:13.390Z,6.15
2017-11-13T11:02:23.698Z,6.15
2017-11-13T11:03:33.680Z,6.15
2017-11-13T11:04:44.027Z,6.13
2017-11-13T11:05:53.707Z,6.13
2017-11-13T11:07:03.679Z,6.28
2017-11-13T11:08:13.986Z,6.34
2017-11-13T11:09:24.014Z,6.34
2017-11-13T11:10:34.032Z,6.36
2017-11-13T11:11:44.385Z,6.41
2017-11-13T11:12:54.896Z,6.28
2017-11-13T11:14:04.213Z,6.31
2017-11-13T11:15:13.888Z,6.29
2017-11-13T11:16:24.196Z,6.35
2017-11-13T11:17:33.851Z,6.38
2017-11-13T11:18:44.214Z,6.36
2017-11-13T11:19:53.869Z,6.39
2017-11-13T11:21:04.215Z,6.43
2017-11-13T11:22:13.889Z,6.41
2017-11-13T11:23:24.234Z,6.39
2017-11-13T11:24:33.586Z,6.56
2017-11-13T11:25:43.915Z,6.59
2017-11-13T11:26:53.927Z,6.64
2017-11-13T11:28:04.304Z,6.85
2017-11-13T11:29:13.977Z,6.89
2017-11-13T11:30:24.353Z,6.9
2017-11-13T11:31:34.377Z,6.86
2017-11-13T11:32:44.425Z,6.97
2017-11-13T11:33:54.775Z,7.03
2017-11-13T11:35:05.428Z,7.1
2017-11-13T11:36:15.461Z,7.07
2017-11-13T11:37:25.813Z,7.13
2017-11-13T11:38:35.439Z,7.1
2017-11-13T11:39:45.426Z,7.23
2017-11-13T11:40:55.401Z,7.15
2017-11-13T11:42:05.396Z,7.21
2017-11-13T11:43:15.758Z,7.04
2017-11-13T11:44:25.963Z,7.01
2017-11-13T11:45:35.977Z,6.93
2017-11-13T11:46:45.666Z,6.89
2017-11-13T11:47:55.318Z,7
2017-11-13T11:49:05.677Z,7
2017-11-13T11:50:16.031Z,6.92
2017-11-13T11:51:26.377Z,7.04
2017-11-13T11:52:36.701Z,7.05
2017-11-13T11:53:46.703Z,7.14
2017-11-13T11:54:57.032Z,7.14
2017-11-13T11:56:07.380Z,7.19
2017-11-13T11:57:17.732Z,7.13
2017-11-13T11:58:27.731Z,7.18
2017-11-13T11:59:38.074Z,7.13
2017-11-13T12:00:48.330Z,7.15
2017-11-13T12:01:58.697Z,7.01
2017-11-13T12:03:08.686Z,7.04
2017-11-13T12:04:19.002Z,7
2017-11-13T12:05:29.005Z,7.08
2017-11-13T12:06:39.024Z,7.08
2017-11-13T12:07:49.055Z,7.03
2017-11-13T12:08:58.705Z,7.1
2017-11-13T12:10:08.381Z,7.11
2017-11-13T12:11:18.076Z,7.32
2017-11-13T12:12:28.394Z,7.41
2017-11-13T12:13:38.380Z,7.64
2017-11-13T12:14:48.386Z,7.67
2017-11-13T12:15:58.425Z,7.8
2017-11-13T12:17:08.433Z,7.77
2017-11-13T12:18:18.780Z,7.85
2017-11-13T12:19:29.113Z,7.8
2017-11-13T12:20:39.474Z,7.78
2017-11-13T12:21:49.468Z,7.64
2017-11-13T12:22:59.795Z,7.64
2017-11-13T12:24:09.807Z,7.61
2017-11-13T12:25:20.122Z,7.61
2017-11-13T12:26:30.481Z,7.62
2017-11-13T12:27:40.858Z,7.62
2017-11-13T12:28:50.907Z,7.7
2017-11-13T12:30:00.562Z,7.77
2017-11-13T12:31:10.564Z,7.83
2017-11-13T12:32:20.565Z,7.95
2017-11-13T12:33:30.552Z,8.03
2017-11-13T12:34:40.896Z,8.09
2017-11-13T12:35:50.915Z,8.17
2017-11-13T12:37:00.923Z,8.36
2017-11-13T12:38:10.924Z,8.45
2017-11-13T12:39:21.308Z,8.54
2017-11-13T12:40:31.311Z,8.44
2017-11-13T12:41:41.307Z,8.52
2017-11-13T12:42:51.628Z,8.26
2017-11-13T12:44:01.671Z,8.23
2017-11-13T12:45:11.337Z,8.32
2017-11-13T12:46:21.344Z,8.42
2017-11-13T12:47:31.341Z,8.59
2017-11-13T12:48:41.336Z,8.52
2017-11-13T12:49:51.668Z,8.6
2017-11-13T12:51:02.028Z,8.72
2017-11-13T12:52:12.055Z,8.81
2017-11-13T12:53:22.132Z,8.99
2017-11-13T12:54:32.218Z,9.15
2017-11-13T12:55:42.592Z,9.27
2017-11-13T12:56:52.925Z,9.27
2017-11-13T12:58:03.253Z,9.27
2017-11-13T12:59:13.583Z,9.4
2017-11-13T13:00:23.588Z,9.58
2017-11-13T13:01:33.902Z,9.55
2017-11-13T13:02:43.901Z,9.63
2017-11-13T13:03:53.915Z,9.54
2017-11-13T13:05:03.923Z,9.44
2017-11-13T13:06:13.935Z,9.47
2017-11-13T13:07:23.588Z,9.24
2017-11-13T13:08:33.917Z,9.16
2017-11-13T13:09:43.950Z,9.09
2017-11-13T13:10:53.967Z,9.02
2017-11-13T13:12:03.945Z,8.89
2017-11-13T13:13:13.962Z,8.96
2017-11-13T13:14:24.290Z,8.97
2017-11-13T13:15:34.277Z,9.03
2017-11-13T13:16:44.594Z,8.92
2017-11-13T13:17:54.285Z,8.78
2017-11-13T13:19:04.609Z,8.78
2017-11-13T13:20:14.999Z,8.79
2017-11-13T13:21:25.389Z,8.72
2017-11-13T13:22:35.742Z,8.61
2017-11-13T13:23:46.105Z,8.63
2017-11-13T13:24:55.763Z,8.63
2017-11-13T13:26:05.773Z,8.52
2017-11-13T13:27:16.089Z,8.49
2017-11-13T13:28:25.763Z,8.35
2017-11-13T13:29:36.098Z,8.32
2017-11-13T13:30:45.739Z,8.2
2017-11-13T13:31:55.704Z,8.13
2017-11-13T13:33:06.026Z,8.05
2017-11-13T13:34:16.355Z,8.02
2017-11-13T13:35:25.339Z,8.05
2017-11-13T13:36:35.660Z,7.85
2017-11-13T13:37:45.982Z,7.8
2017-11-13T13:38:56.295Z,7.75
2017-11-13T13:40:06.625Z,7.81
2017-11-13T13:41:16.958Z,7.78
2017-11-13T13:42:27.266Z,7.81
2017-11-13T13:43:37.273Z,7.62
2017-11-13T13:44:46.942Z,7.75
2017-11-13T13:45:57.251Z,7.72
2017-11-13T13:47:07.578Z,7.74
2017-11-13T13:48:17.240Z,7.78
2017-11-13T13:49:27.477Z,7.84
2017-11-13T13:50:37.481Z,7.91
2017-11-13T13:51:48.079Z,7.85
2017-11-13T13:52:58.113Z,7.84
2017-11-13T13:54:07.787Z,7.75
2017-11-13T13:55:17.766Z,7.81
2017-11-13T13:56:27.428Z,7.83
2017-11-13T13:57:37.426Z,7.69
2017-11-13T13:58:47.410Z,7.81
2017-11-13T13:59:57.733Z,7.81
2017-11-13T14:01:08.083Z,7.85
2017-11-13T14:02:18.468Z,7.93
2017-11-13T14:03:28.159Z,7.93
2017-11-13T14:04:38.158Z,7.9
2017-11-13T14:05:48.148Z,7.93
2017-11-13T14:06:57.809Z,8.03
2017-11-13T14:08:08.154Z,8.02
2017-11-13T14:09:18.153Z,8.01
2017-11-13T14:10:28.496Z,7.95
2017-11-13T14:11:38.840Z,7.87
2017-11-13T14:12:48.839Z,7.75
2017-11-13T14:13:58.861Z,7.64
2017-11-13T14:15:08.517Z,7.61
2017-11-13T14:16:18.857Z,7.48
2017-11-13T14:17:29.152Z,7.39
2017-11-13T14:18:39.514Z,7.31
2017-11-13T14:19:48.847Z,7.32
2017-11-13T14:20:58.846Z,7.32
2017-11-13T14:22:09.159Z,7.26
2017-11-13T14:23:19.149Z,7.29
2017-11-13T14:24:29.113Z,7.22
2017-11-13T14:25:39.449Z,7.21
2017-11-13T14:26:48.770Z,7.14
2017-11-13T14:27:58.760Z,7.13
2017-11-13T14:29:08.425Z,7.07
2017-11-13T14:30:18.417Z,7.04
2017-11-13T14:31:28.056Z,7.03
2017-11-13T14:32:38.370Z,7.05
2017-11-13T14:33:48.714Z,6.97
2017-11-13T14:34:59.030Z,7
2017-11-13T14:36:09.362Z,6.95
2017-11-13T14:37:19.344Z,6.95
2017-11-13T14:38:29.348Z,7.03
2017-11-13T14:39:39.651Z,7.03
2017-11-13T14:40:49.969Z,6.97
2017-11-13T14:41:59.970Z,7
2017-11-13T14:43:09.970Z,7.03
2017-11-13T14:44:19.954Z,7.07
2017-11-13T14:45:29.942Z,7.04
2017-11-13T14:46:39.961Z,7.01
2017-11-13T14:47:49.942Z,7
2017-11-13T14:49:00.281Z,6.95
2017-11-13T14:50:10.266Z,6.97
2017-11-13T14:51:20.253Z,6.92
2017-11-13T14:52:30.258Z,6.96
2017-11-13T14:53:40.229Z,6.89
2017-11-13T14:54:50.541Z,6.86
2017-11-13T14:56:00.842Z,6.93
2017-11-13T14:57:11.134Z,6.83
2017-11-13T14:58:21.483Z,6.85
2017-11-13T14:59:31.566Z,6.82
2017-11-13T15:00:41.455Z,6.9
2017-11-13T15:01:51.424Z,6.82
2017-11-13T15:03:01.405Z,6.77
2017-11-13T15:04:11.382Z,6.75
2017-11-13T15:05:21.706Z,6.86
2017-11-13T15:06:31.683Z,6.85
2017-11-13T15:07:41.991Z,6.78
2017-11-13T15:08:51.994Z,6.83
2017-11-13T15:10:02.299Z,6.83
2017-11-13T15:11:12.271Z,6.8
2017-11-13T15:12:21.925Z,6.85
2017-11-13T15:13:32.234Z,6.87
2017-11-13T15:14:41.891Z,6.85
2017-11-13T15:15:52.201Z,6.86
2017-11-13T15:17:02.178Z,6.86
2017-11-13T15:18:12.500Z,6.9
2017-11-13T15:19:22.815Z,6.85
2017-11-13T15:20:32.794Z,6.86
2017-11-13T15:21:42.457Z,6.85
2017-11-13T15:22:52.787Z,6.95
2017-11-13T15:24:03.134Z,6.9
2017-11-13T15:25:13.124Z,6.86
2017-11-13T15:26:23.125Z,6.87
2017-11-13T15:27:33.111Z,6.83
2017-11-13T15:28:43.432Z,6.86
2017-11-13T15:29:53.442Z,6.83
2017-11-13T15:31:03.755Z,6.9
2017-11-13T15:32:14.057Z,6.86
2017-11-13T15:33:24.348Z,6.89
2017-11-13T15:34:34.666Z,6.82
2017-11-13T15:35:44.655Z,6.77
2017-11-13T15:36:54.974Z,6.71